Time;durP1;ratioP1;P1;durP2;ratioP2;P2;SDS_P1;SDS_P2;PMS_P1;PMS_P2;Temp;Humidity;BMP_temperature;BMP_pressure;BME280_temperature;BME280_humidity;BME280_pressure;Samples;Min_cycle;Max_cycle;Signal;HPM_P1;HPM_P2
2022/01/01 00:02:23;;;;;;;6.77;5.47;;;;;;;10.55;100.00;101586.81;5032541;28;20004;-71
2022/01/01 00:05:09;;;;;;;10.50;5.97;;;;;;;10.55;100.00;101584.97;5032058;28;20592;-71
2022/01/01 00:07:53;;;;;;;6.18;5.05;;;;;;;10.60;100.00;101589.97;5032295;28;20048;-72
2022/01/01 00:10:37;;;;;;;7.20;4.82;;;;;;;10.61;100.00;101597.88;5033167;28;20060;-71
2022/01/01 00:13:21;;;;;;;6.22;5.13;;;;;;;10.64;100.00;101597.63;5032271;28;20049;-71
2022/01/01 00:16:09;;;;;;;;;;;;;;;10.65;100.00;101610.00;5018898;28;20560;-72
2022/01/01 00:18:53;;;;;;;7.28;4.55;;;;;;;10.66;100.00;101601.03;5032098;28;19920;-71
2022/01/01 00:21:37;;;;;;;10.35;5.72;;;;;;;10.69;100.00;101610.63;5033011;28;20143;-71
2022/01/01 00:24:21;;;;;;;13.05;5.45;;;;;;;10.65;100.00;101610.00;5058203;23;20077;-78
2022/01/01 00:27:04;;;;;;;6.80;5.60;;;;;;;10.60;100.00;101617.50;5018274;28;20509;-76
2022/01/01 00:29:48;;;;;;;9.13;6.22;;;;;;;10.60;100.00;101612.19;5033248;28;20480;-77
2022/01/01 00:32:36;;;;;;;8.95;5.72;;;;;;;10.41;100.00;101624.25;5046083;28;20527;-77
2022/01/01 00:35:20;;;;;;;9.40;6.75;;;;;;;10.36;100.00;101621.94;5032115;28;20512;-77
2022/01/01 00:38:04;;;;;;;9.77;6.82;;;;;;;10.39;100.00;101613.72;5033086;28;20091;-76
2022/01/01 00:40:48;;;;;;;8.55;6.63;;;;;;;10.42;100.00;101621.50;5031772;28;20511;-76
2022/01/01 00:43:32;;;;;;;8.93;6.18;;;;;;;10.43;100.00;101617.88;5032579;28;20051;-76
2022/01/01 00:46:16;;;;;;;11.63;7.10;;;;;;;10.39;100.00;101608.41;5031860;28;20103;-76
2022/01/01 00:49:00;;;;;;;10.07;6.60;;;;;;;10.35;100.00;101604.22;5032676;28;20048;-76
2022/01/01 00:51:44;;;;;;;9.88;7.13;;;;;;;10.34;100.00;101607.03;5031979;28;20052;-76
2022/01/01 00:54:28;;;;;;;9.23;6.25;;;;;;;10.44;100.00;101602.75;5045703;28;20091;-76
2022/01/01 00:57:12;;;;;;;;;;;;;;;10.46;100.00;101601.63;5031998;28;20083;-76
2022/01/01 00:59:56;;;;;;;8.63;5.72;;;;;;;10.38;100.00;101604.03;5031563;28;19923;-76
2022/01/01 01:02:40;;;;;;;7.32;5.80;;;;;;;10.43;100.00;101604.53;5031912;28;20496;-76
2022/01/01 01:05:25;;;;;;;8.40;6.18;;;;;;;10.48;100.00;101599.75;5032435;28;20044;-75
2022/01/01 01:08:10;;;;;;;8.35;6.10;;;;;;;10.45;100.00;101615.94;5031498;28;20555;-76
2022/01/01 01:10:56;;;;;;;10.00;6.18;;;;;;;10.50;100.00;101605.81;5031706;28;20098;-76
2022/01/01 01:13:44;;;;;;;11.55;5.95;;;;;;;10.37;100.00;101605.00;5031755;28;20528;-75
2022/01/01 01:16:28;;;;;;;10.43;6.13;;;;;;;10.46;100.00;101600.81;5031427;28;20080;-76
2022/01/01 01:19:12;;;;;;;8.48;5.97;;;;;;;10.54;100.00;101601.94;5035484;28;20052;-76
2022/01/01 01:21:56;;;;;;;8.55;5.90;;;;;;;10.42;100.00;101610.84;5035297;28;20052;-76
2022/01/01 01:24:40;;;;;;;8.55;6.35;;;;;;;10.41;100.00;101600.28;5036223;28;20103;-76
2022/01/01 01:27:24;;;;;;;9.30;6.00;;;;;;;10.44;100.00;101608.91;5049378;28;20171;-76
2022/01/01 01:30:14;;;;;;;9.50;6.07;;;;;;;10.38;100.00;101606.69;5035227;28;20047;-76
2022/01/01 01:32:58;;;;;;;10.05;6.28;;;;;;;10.42;100.00;101613.50;5036258;28;20044;-76
2022/01/01 01:35:42;;;;;;;11.30;6.20;;;;;;;10.44;100.00;101611.56;5035372;28;20557;-76
2022/01/01 01:38:26;;;;;;;8.55;6.13;;;;;;;10.49;100.00;101613.91;5035416;28;20053;-76
2022/01/01 01:41:10;;;;;;;10.13;6.55;;;;;;;10.50;100.00;101611.13;5035997;28;20072;-76
2022/01/01 01:43:56;;;;;;;10.48;5.72;;;;;;;10.61;100.00;101607.66;5035178;28;20060;-76
2022/01/01 01:46:40;;;;;;;8.80;5.70;;;;;;;10.56;100.00;101613.34;5034912;28;20103;-76
2022/01/01 01:49:24;;;;;;;8.07;5.65;;;;;;;10.62;100.00;101610.25;5036370;28;20056;-75
2022/01/01 01:52:08;;;;;;;6.90;5.03;;;;;;;10.63;100.00;101603.94;5049105;28;20129;-76
2022/01/01 01:54:52;;;;;;;8.90;5.95;;;;;;;10.64;100.00;101605.63;5034626;28;20114;-76
2022/01/01 01:57:41;;;;;;;8.23;6.10;;;;;;;10.66;100.00;101605.53;5048812;28;20144;-76
2022/01/01 02:00:51;;;;;;;7.70;5.72;;;;;;;10.64;100.00;101613.63;5034685;28;20048;-76
2022/01/01 02:03:29;;;;;;;9.75;5.47;;;;;;;10.62;100.00;101599.56;5035238;28;20452;-76
2022/01/01 02:06:13;;;;;;;10.93;6.32;;;;;;;10.61;100.00;101599.69;5035931;28;20106;-76
2022/01/01 02:08:57;;;;;;;11.13;6.05;;;;;;;10.57;100.00;101596.38;5034555;28;20520;-76
2022/01/01 02:11:42;;;;;;;10.63;6.25;;;;;;;10.59;100.00;101594.47;5034731;28;20052;-76
2022/01/01 02:14:55;;;;;;;10.02;7.10;;;;;;;10.56;100.00;101599.19;5034306;28;20111;-76
2022/01/01 02:17:39;;;;;;;16.95;7.07;;;;;;;10.54;100.00;101601.09;5035762;28;20129;-76
2022/01/01 02:20:25;;;;;;;13.30;7.57;;;;;;;10.56;100.00;101601.84;5034555;28;20043;-76
2022/01/01 02:23:14;;;;;;;11.27;7.68;;;;;;;10.59;100.00;101594.47;5034391;28;20076;-76
2022/01/01 02:25:57;;;;;;;10.52;7.00;;;;;;;10.62;100.00;101596.91;5035369;28;20079;-76
2022/01/01 02:28:46;;;;;;;11.45;7.90;;;;;;;10.57;100.00;101596.38;5034071;28;20083;-76
2022/01/01 02:31:32;;;;;;;11.23;7.70;;;;;;;10.67;100.00;101594.72;5034264;28;20068;-76
2022/01/01 02:34:16;;;;;;;12.70;8.05;;;;;;;10.64;100.00;101586.13;5034087;28;20056;-76
2022/01/01 02:37:00;;;;;;;14.15;8.57;;;;;;;10.58;100.00;101590.09;5034278;28;20107;-76
2022/01/01 02:39:44;;;;;;;11.50;7.82;;;;;;;10.56;100.00;101578.69;5048070;28;20059;-76
2022/01/01 02:42:28;;;;;;;13.25;8.63;;;;;;;10.57;100.00;101583.03;5035390;28;20044;-76
2022/01/01 02:45:13;;;;;;;14.20;8.00;;;;;;;10.60;100.00;101573.97;5034057;28;20060;-76
2022/01/01 02:47:57;;;;;;;13.52;7.57;;;;;;;10.68;100.00;101567.13;5033978;28;20425;-76
2022/01/01 02:50:41;;;;;;;12.43;8.05;;;;;;;10.62;100.00;101572.91;5019816;28;20409;-76
2022/01/01 02:53:25;;;;;;;12.05;7.80;;;;;;;10.61;100.00;101583.66;5047647;28;20056;-76
2022/01/01 02:56:09;;;;;;;12.23;8.13;;;;;;;10.59;100.00;101570.47;5048063;28;20472;-76
2022/01/01 02:58:53;;;;;;;13.50;8.50;;;;;;;10.56;100.00;101573.34;5035139;28;20100;-76
2022/01/01 03:01:37;;;;;;;15.80;8.93;;;;;;;10.54;100.00;101575.28;5033556;28;20063;-76
2022/01/01 03:04:21;;;;;;;14.68;9.48;;;;;;;10.49;100.00;101574.78;5033680;28;20507;-76
2022/01/01 03:07:06;;;;;;;13.32;8.70;;;;;;;10.53;100.00;101573.56;5033708;28;20056;-76
2022/01/01 03:09:50;;;;;;;14.52;8.15;;;;;;;10.59;100.00;101569.59;5033697;28;20048;-76
2022/01/01 03:12:33;;;;;;;13.32;8.95;;;;;;;10.59;100.00;101566.94;5033296;28;20064;-76
2022/01/01 03:15:17;;;;;;;;;;;;;;;10.48;100.00;101559.75;5035234;28;20163;-76
2022/01/01 03:18:02;;;;;;;17.40;10.67;;;;;;;10.45;100.00;101554.63;5033270;28;19919;-76
2022/01/01 03:20:46;;;;;;;25.48;15.70;;;;;;;10.42;100.00;101560.19;5033491;28;20056;-76
2022/01/01 03:23:30;;;;;;;18.98;11.27;;;;;;;10.24;100.00;101561.50;5034215;28;20049;-76
2022/01/01 03:26:14;;;;;;;22.48;12.95;;;;;;;10.03;100.00;101561.34;5047293;28;20063;-76
2022/01/01 03:28:58;;;;;;;27.15;15.20;;;;;;;9.93;100.00;101560.28;5047429;28;20504;-76
2022/01/01 03:31:41;;;;;;;25.15;13.98;;;;;;;9.88;100.00;101557.09;5033097;28;20064;-76
2022/01/01 03:34:25;;;;;;;27.60;15.65;;;;;;;9.80;100.00;101570.94;5032994;28;20064;-76
2022/01/01 03:37:09;;;;;;;35.33;15.57;;;;;;;9.73;100.00;101558.16;5047178;28;20076;-75
2022/01/01 03:39:53;;;;;;;26.42;16.13;;;;;;;9.70;100.00;101551.25;5032485;28;20083;-76
2022/01/01 03:42:37;;;;;;;41.85;18.58;;;;;;;9.66;100.00;101551.56;5019074;28;20040;-76
2022/01/01 03:45:21;;;;;;;29.77;17.83;;;;;;;9.57;100.00;101557.56;5046795;28;20060;-76
2022/01/01 03:48:05;;;;;;;34.40;18.80;;;;;;;9.45;100.00;101548.59;5033916;28;20047;-76
2022/01/01 03:50:49;;;;;;;37.25;20.10;;;;;;;9.43;100.00;101545.19;5018595;28;20072;-76
2022/01/01 03:53:33;;;;;;;39.60;21.73;;;;;;;9.35;100.00;101549.31;5032524;28;20103;-76
2022/01/01 03:56:17;;;;;;;42.78;23.10;;;;;;;9.31;100.00;101551.38;5033049;28;20190;-76
2022/01/01 03:59:01;;;;;;;43.97;22.20;;;;;;;9.34;100.00;101550.28;5033857;28;20068;-76
2022/01/01 04:01:45;;;;;;;45.88;23.80;;;;;;;9.26;100.00;101544.66;5046666;28;20505;-76
2022/01/01 04:04:29;;;;;;;40.17;23.05;;;;;;;9.19;100.00;101536.22;5032491;28;20117;-76
2022/01/01 04:07:13;;;;;;;42.88;22.60;;;;;;;9.16;100.00;101540.94;5032870;28;20056;-76
2022/01/01 04:09:57;;;;;;;;;;;;;;;9.13;100.00;101541.97;5033933;28;20052;-76
2022/01/01 04:12:40;;;;;;;46.60;23.92;;;;;;;9.07;100.00;101547.72;5032225;28;19950;-76
2022/01/01 04:15:26;;;;;;;45.20;24.65;;;;;;;9.00;100.00;101540.25;5032145;28;20049;-75
2022/01/01 04:18:12;;;;;;;43.30;23.42;;;;;;;8.93;100.00;101528.31;5046886;28;20076;-76
2022/01/01 04:20:56;;;;;;;50.65;24.27;;;;;;;8.78;100.00;101524.88;5033152;28;20063;-76
2022/01/01 04:23:42;;;;;;;47.88;24.10;;;;;;;8.73;100.00;101531.44;5031830;28;20047;-76
2022/01/01 04:26:27;;;;;;;42.70;23.38;;;;;;;8.66;100.00;101535.50;5018387;28;20136;-76
2022/01/01 04:29:10;;;;;;;51.70;25.45;;;;;;;8.57;100.00;101536.09;5032984;28;20519;-76
2022/01/01 04:31:55;;;;;;;49.97;25.95;;;;;;;8.50;100.00;101540.97;5032002;28;20520;-75
2022/01/01 04:34:39;;;;;;;44.38;22.27;;;;;;;8.47;100.00;101546.47;5031828;28;20423;-76
2022/01/01 04:37:23;;;;;;;33.42;18.95;;;;;;;8.46;100.00;101550.06;5033517;28;20132;-76
2022/01/01 04:40:08;;;;;;;35.80;18.88;;;;;;;8.41;100.00;101559.31;5032070;28;20064;-75
2022/01/01 04:42:51;;;;;;;32.95;18.80;;;;;;;8.34;100.00;101564.16;5032029;28;20506;-76
2022/01/01 04:45:35;;;;;;;31.27;19.30;;;;;;;8.29;100.00;101568.06;5032007;28;20135;-76
2022/01/01 04:48:19;;;;;;;34.90;19.90;;;;;;;8.20;100.00;101564.22;5031775;28;20092;-75
2022/01/01 04:51:07;;;;;;;34.33;18.70;;;;;;;8.16;100.00;101561.81;5031490;28;20143;-76
2022/01/01 04:53:58;;;;;;;41.15;19.50;;;;;;;8.14;100.00;101577.00;5031715;28;20045;-75
2022/01/01 04:56:47;;;;;;;54.38;16.42;;;;;;;8.05;100.00;101578.41;5032565;28;20048;-76
2022/01/01 04:59:31;;;;;;;35.22;17.63;;;;;;;8.00;100.00;101584.97;5031989;28;20051;-76
2022/01/01 05:02:15;;;;;;;32.25;18.70;;;;;;;7.95;100.00;101587.91;5017655;28;20123;-76
2022/01/01 05:04:59;;;;;;;29.95;17.35;;;;;;;7.97;100.00;101593.13;5031635;28;20051;-75
2022/01/01 05:07:44;;;;;;;35.22;19.67;;;;;;;8.02;100.00;101594.56;5045807;28;20099;-75
2022/01/01 05:10:28;;;;;;;45.05;20.77;;;;;;;8.07;100.00;101604.88;5032444;28;20552;-75
2022/01/01 05:13:14;;;;;;;41.38;18.08;;;;;;;8.05;100.00;101599.66;5031379;28;20532;-75
2022/01/01 05:15:58;;;;;;;37.60;19.45;;;;;;;8.10;100.00;101604.69;5031345;28;20052;-75
2022/01/01 05:18:42;;;;;;;47.60;23.02;;;;;;;8.17;100.00;101603.38;5017733;28;20421;-75
2022/01/01 05:21:30;;;;;;;50.08;23.85;;;;;;;8.19;100.00;101597.03;5032400;28;20448;-75
2022/01/01 05:24:18;;;;;;;40.03;21.00;;;;;;;8.20;100.00;101603.19;5032296;28;20598;-75
2022/01/01 05:27:02;;;;;;;43.95;19.88;;;;;;;8.32;100.00;101603.28;5031762;28;20056;-76
2022/01/01 05:29:46;;;;;;;38.90;19.30;;;;;;;8.40;100.00;101608.97;5045576;28;20512;-76
2022/01/01 05:32:30;;;;;;;41.20;21.38;;;;;;;8.41;100.00;101615.97;5032140;28;20520;-75
2022/01/01 05:35:14;;;;;;;37.25;19.85;;;;;;;8.39;100.00;101611.69;5045759;28;20075;-75
2022/01/01 05:37:58;;;;;;;35.60;19.90;;;;;;;8.42;100.00;101603.53;5045726;28;20091;-75
2022/01/01 05:40:41;;;;;;;34.63;19.35;;;;;;;8.51;100.00;101602.94;5045314;28;20048;-76
2022/01/01 05:43:25;;;;;;;;;;;;;;;8.54;100.00;101605.41;5032559;28;20059;-76
2022/01/01 05:46:09;;;;;;;41.30;20.57;;;;;;;8.32;100.00;101594.44;5032401;28;19975;-76
2022/01/01 05:48:53;;;;;;;40.17;20.40;;;;;;;8.20;100.00;101590.78;5031071;28;20095;-76
2022/01/01 05:51:37;;;;;;;;;;;;;;;8.15;100.00;101595.47;5032407;28;20053;-76
2022/01/01 05:54:21;;;;;;;44.67;22.23;;;;;;;8.24;100.00;101599.41;5031977;28;20327;-75
2022/01/01 05:57:06;;;;;;;40.05;20.30;;;;;;;8.31;100.00;101598.91;5032277;28;20488;-75
2022/01/01 05:59:50;;;;;;;39.25;18.98;;;;;;;8.26;100.00;101595.69;5031248;28;20048;-75
2022/01/01 06:02:41;;;;;;;38.33;19.17;;;;;;;8.31;100.00;101598.91;5017266;28;20052;-75
2022/01/01 06:05:26;;;;;;;33.45;16.88;;;;;;;8.32;100.00;101605.06;5035039;28;20396;-75
2022/01/01 06:08:10;;;;;;;35.80;20.08;;;;;;;8.30;100.00;101604.31;5034830;28;20144;-76
2022/01/01 06:10:55;;;;;;;36.25;19.05;;;;;;;8.32;100.00;101605.06;5034753;28;20107;-76
2022/01/01 06:13:38;;;;;;;34.67;17.95;;;;;;;8.39;100.00;101606.38;5034479;28;20068;-75
2022/01/01 06:16:22;;;;;;;32.42;18.45;;;;;;;8.35;100.00;101605.72;5034406;28;20072;-76
2022/01/01 06:19:06;;;;;;;;;;;;;;;8.31;100.00;101603.38;5034788;28;20060;-75
2022/01/01 06:21:50;;;;;;;36.03;18.13;;;;;;;8.28;100.00;101592.94;5035632;28;19919;-75
2022/01/01 06:24:34;;;;;;;35.85;18.02;;;;;;;8.13;100.00;101604.53;5034026;28;20144;-75
2022/01/01 06:27:18;;;;;;;33.92;17.48;;;;;;;8.19;100.00;101594.38;5035478;28;20056;-75
2022/01/01 06:30:03;;;;;;;33.55;18.55;;;;;;;8.21;100.00;101594.28;5034442;28;20436;-76
2022/01/01 06:32:49;;;;;;;40.00;20.13;;;;;;;8.21;100.00;101599.59;5034170;28;20099;-75
2022/01/01 06:35:33;;;;;;;35.55;18.83;;;;;;;8.18;100.00;101605.06;5035058;28;20047;-76
2022/01/01 06:38:17;;;;;;;29.50;17.55;;;;;;;8.07;100.00;101610.19;5034303;28;20556;-75
2022/01/01 06:41:01;;;;;;;32.47;18.98;;;;;;;8.07;100.00;101604.88;5033883;28;20056;-76
2022/01/01 06:43:45;;;;;;;36.20;18.60;;;;;;;7.86;100.00;101606.22;5034114;28;20060;-75
2022/01/01 06:46:29;;;;;;;35.58;19.08;;;;;;;7.81;100.00;101605.66;5036690;28;20199;-76
2022/01/01 06:49:13;;;;;;;40.45;21.80;;;;;;;7.84;100.00;101602.81;5034339;28;20103;-76
2022/01/01 06:51:57;;;;;;;;;;;;;;;7.87;100.00;101607.94;5020383;28;20141;-76
2022/01/01 06:54:40;;;;;;;40.42;20.13;;;;;;;7.88;100.00;101609.63;5033561;28;20005;-76
2022/01/01 06:57:24;;;;;;;;;;;;;;;7.83;100.00;101601.13;5034347;28;20461;-76
2022/01/01 07:00:10;;;;;;;41.30;20.07;;;;;;;7.87;100.00;101602.63;5033958;28;20016;-76
2022/01/01 07:02:56;;;;;;;41.45;20.90;;;;;;;7.88;100.00;101602.53;5034611;28;20262;-76
2022/01/01 07:05:40;;;;;;;43.50;22.23;;;;;;;7.88;100.00;101602.53;5034559;28;20057;-76
2022/01/01 07:08:24;;;;;;;42.65;21.02;;;;;;;7.82;100.00;101604.72;5033706;28;20053;-76
2022/01/01 07:11:08;;;;;;;46.55;22.05;;;;;;;7.90;100.00;101597.97;5034669;28;20132;-76
2022/01/01 07:13:53;;;;;;;44.03;21.35;;;;;;;8.00;100.00;101606.22;5033141;28;20048;-76
2022/01/01 07:16:37;;;;;;;35.60;19.90;;;;;;;8.03;100.00;101603.38;5032801;28;20048;-76
2022/01/01 07:19:21;;;;;;;39.47;22.08;;;;;;;8.03;100.00;101612.19;5033428;28;20052;-76
2022/01/01 07:22:05;;;;;;;35.40;20.05;;;;;;;8.00;100.00;101606.22;5033233;28;20179;-76
2022/01/01 07:24:49;;;;;;;34.17;20.55;;;;;;;8.06;100.00;101613.81;5019065;28;20052;-76
2022/01/01 07:27:34;;;;;;;33.67;19.65;;;;;;;8.08;100.00;101609.25;5033354;28;20409;-76
2022/01/01 07:30:18;;;;;;;37.30;20.83;;;;;;;8.03;100.00;101612.19;5033257;28;20047;-76
2022/01/01 07:33:01;;;;;;;36.90;18.65;;;;;;;8.10;100.00;101610.00;5034364;28;20044;-76
2022/01/01 07:35:45;;;;;;;37.20;19.95;;;;;;;8.13;100.00;101609.84;5019447;28;20048;-76
2022/01/01 07:38:29;;;;;;;;;;;;;;;8.14;100.00;101616.84;5019613;28;20563;-76
2022/01/01 07:41:13;;;;;;;32.77;18.90;;;;;;;8.07;100.00;101604.88;5018894;28;19952;-76
2022/01/01 07:43:57;;;;;;;36.35;18.95;;;;;;;8.01;100.00;101622.06;5032845;28;20559;-76
2022/01/01 07:46:41;;;;;;;32.05;20.15;;;;;;;8.05;100.00;101623.56;5033639;28;20048;-76
2022/01/01 07:49:25;;;;;;;33.75;18.45;;;;;;;8.15;100.00;101618.56;5032937;28;20152;-76
2022/01/01 07:52:09;;;;;;;;;;;;;;;8.18;100.00;101618.34;5033159;28;20088;-76
2022/01/01 07:54:53;;;;;;;39.78;19.20;;;;;;;8.15;100.00;101624.69;5032542;28;19923;-77
2022/01/01 07:57:37;;;;;;;;;;;;;;;8.27;100.00;101629.28;5019497;28;20048;-76
2022/01/01 08:00:21;;;;;;;38.13;18.77;;;;;;;8.26;100.00;101616.09;5032791;28;20019;-76
2022/01/01 08:03:05;;;;;;;31.75;18.73;;;;;;;8.28;100.00;101631.00;5046767;28;20076;-77
2022/01/01 08:05:49;;;;;;;30.77;18.10;;;;;;;8.39;100.00;101622.34;5032819;28;20091;-76
2022/01/01 08:08:33;;;;;;;32.17;18.50;;;;;;;8.42;100.00;101627.44;5032368;28;20052;-77
2022/01/01 08:11:17;;;;;;;33.78;17.75;;;;;;;8.50;100.00;101635.78;5032230;28;20099;-76
2022/01/01 08:14:01;;;;;;;30.20;18.17;;;;;;;8.61;100.00;101634.16;5046282;28;20044;-76
2022/01/01 08:17:06;;;;;;;29.25;18.00;;;;;;;8.68;100.00;101642.59;5032173;28;20052;-76
2022/01/01 08:19:51;;;;;;;28.45;17.27;;;;;;;8.73;100.00;101637.81;5032314;28;20095;-76
2022/01/01 08:22:35;;;;;;;27.17;17.98;;;;;;;8.72;100.00;101641.41;5032303;28;20413;-76
2022/01/01 08:25:20;;;;;;;30.58;17.67;;;;;;;8.90;100.00;101649.06;5031856;28;20119;-76
2022/01/01 08:28:05;;;;;;;25.98;16.38;;;;;;;8.87;100.00;101645.75;5032267;28;20478;-76
2022/01/01 08:30:49;;;;;;;27.20;16.55;;;;;;;9.06;100.00;101643.59;5031918;28;20195;-76
2022/01/01 08:33:33;;;;;;;;;;;;;;;9.02;100.00;101639.41;5032404;28;20051;-76
2022/01/01 08:36:17;;;;;;;28.33;17.27;;;;;;;8.98;100.00;101637.94;5032105;28;20340;-76
2022/01/01 08:39:01;;;;;;;;;;;;;;;9.03;100.00;101647.31;5018674;28;20401;-76
2022/01/01 08:41:46;;;;;;;29.65;17.00;;;;;;;9.12;100.00;101648.50;5032051;28;20383;-76
2022/01/01 08:44:30;;;;;;;28.73;16.63;;;;;;;9.17;100.00;101643.75;5032161;28;20068;-76
2022/01/01 08:47:14;;;;;;;26.77;17.02;;;;;;;9.19;100.00;101649.81;5031865;28;20114;-76
2022/01/01 08:49:58;;;;;;;29.77;17.13;;;;;;;9.31;100.00;101648.97;5031698;28;20052;-76
2022/01/01 08:52:43;;;;;;;27.15;15.98;;;;;;;9.35;100.00;101650.47;5032830;28;20072;-76
2022/01/01 08:55:28;;;;;;;30.67;16.25;;;;;;;9.41;100.00;101644.75;5031783;28;20103;-76
2022/01/01 08:58:13;;;;;;;25.92;16.08;;;;;;;9.47;100.00;101649.66;5045900;28;20053;-77
2022/01/01 09:00:56;;;;;;;29.17;16.40;;;;;;;9.45;100.00;101654.22;5045887;28;20512;-76
2022/01/01 09:03:41;;;;;;;24.13;15.35;;;;;;;9.46;100.00;101650.63;5045802;28;20044;-76
2022/01/01 09:06:25;;;;;;;24.85;16.15;;;;;;;9.42;100.00;101651.75;5032062;28;20056;-77
2022/01/01 09:09:10;;;;;;;27.67;16.05;;;;;;;9.54;100.00;101653.59;5031695;28;20064;-76
2022/01/01 09:11:54;;;;;;;25.35;15.52;;;;;;;9.50;100.00;101647.63;5045683;28;20417;-77
2022/01/01 09:14:38;;;;;;;27.35;18.08;;;;;;;9.60;100.00;101643.38;5031334;28;20052;-76
2022/01/01 09:17:22;;;;;;;25.30;15.75;;;;;;;9.86;100.00;101644.22;5031849;28;20207;-76
2022/01/01 09:20:06;;;;;;;26.98;16.13;;;;;;;10.05;100.00;101639.38;5031338;28;20055;-77
2022/01/01 09:22:51;;;;;;;23.92;14.93;;;;;;;10.25;100.00;101643.16;5032452;28;20049;-77
2022/01/01 09:25:36;;;;;;;23.95;15.02;;;;;;;10.35;100.00;101638.88;5017589;28;20049;-77
2022/01/01 09:28:19;;;;;;;23.23;15.20;;;;;;;10.51;100.00;101635.97;5031949;28;20505;-71
2022/01/01 09:31:04;;;;;;;23.75;14.93;;;;;;;10.52;100.00;101651.00;5032332;28;20080;-76
2022/01/01 09:33:47;;;;;;;22.88;15.35;;;;;;;10.60;100.00;101645.97;5031290;28;20180;-76
2022/01/01 09:36:32;;;;;;;;;;;;;;;10.95;100.00;101645.09;5031890;28;20106;-76
2022/01/01 09:39:16;;;;;;;20.98;14.57;;;;;;;10.81;100.00;101650.59;5035024;28;19920;-76
2022/01/01 09:42:01;;;;;;;22.65;14.32;;;;;;;10.37;100.00;101653.00;5035138;28;20060;-76
2022/01/01 09:44:46;;;;;;;25.55;14.77;;;;;;;10.28;100.00;101653.63;5035086;28;20049;-76
2022/01/01 09:47:30;;;;;;;25.90;15.55;;;;;;;10.37;100.00;101647.66;5035200;28;20125;-76
2022/01/01 09:50:14;;;;;;;22.00;13.85;;;;;;;10.63;100.00;101643.94;5034880;28;20121;-76
2022/01/01 09:52:58;;;;;;;25.67;14.73;;;;;;;10.74;100.00;101640.50;5036080;28;20044;-76
2022/01/01 09:55:42;;;;;;;23.73;13.95;;;;;;;10.45;100.00;101637.25;5035062;28;20428;-76
2022/01/01 09:58:31;;;;;;;21.10;14.02;;;;;;;10.63;100.00;101638.59;5035942;28;20107;-76
2022/01/01 10:01:15;;;;;;;23.88;13.82;;;;;;;10.95;100.00;101641.59;5035151;28;20061;-76
2022/01/01 10:04:00;;;;;;;20.58;13.35;;;;;;;10.95;100.00;101645.09;5048665;28;20048;-76
2022/01/01 10:07:00;;;;;;;18.60;12.70;;;;;;;11.46;100.00;101641.19;5035856;28;20187;-76
2022/01/01 10:09:44;;;;;;;19.80;13.45;;;;;;;11.42;100.00;101644.19;5035789;28;20464;-76
2022/01/01 10:12:40;;;;;;;19.15;12.75;;;;;;;12.14;100.00;101639.41;5035669;28;20064;-76
2022/01/01 10:15:24;;;;;;;20.83;13.82;;;;;;;11.80;100.00;101634.97;5034494;28;20115;-76
2022/01/01 10:18:08;;;;;;;19.17;13.82;;;;;;;11.49;100.00;101640.94;5020577;28;20107;-76
2022/01/01 10:21:00;;;;;;;18.25;13.35;;;;;;;11.55;100.00;101632.47;5034623;28;20539;-76
2022/01/01 10:23:49;;;;;;;20.83;12.40;;;;;;;12.52;100.00;101629.16;5034412;28;20524;-76
2022/01/01 10:29:36;;;;;;;17.27;11.75;;;;;;;14.83;80.24;101617.88;5035187;28;20133;-76
2022/01/01 10:32:20;;;;;;;16.48;12.18;;;;;;;14.68;81.91;101618.44;5034107;28;20072;-77
2022/01/01 10:35:05;;;;;;;15.93;10.38;;;;;;;15.97;77.57;101609.78;5035028;28;20044;-76
2022/01/01 10:37:49;;;;;;;16.52;11.10;;;;;;;16.97;67.61;101612.41;5020298;28;20103;-76
2022/01/01 10:40:33;;;;;;;;;;;;;;;16.88;68.46;101614.13;5034317;28;20041;-77
2022/01/01 10:43:17;;;;;;;17.37;10.77;;;;;;;18.15;63.38;101600.03;5033902;28;20403;-77
2022/01/01 10:46:03;;;;;;;15.48;10.85;;;;;;;17.40;62.08;101597.16;5034098;28;20056;-77
2022/01/01 10:51:38;;;;;;;;;;;;;;;19.69;55.87;101574.03;5034396;28;20056;-77
2022/01/01 10:54:25;;;;;;;14.02;8.40;;;;;;;18.71;57.27;101573.28;5033911;28;20423;-77
2022/01/01 10:57:10;;;;;;;12.15;9.60;;;;;;;15.53;70.73;101580.00;5048127;28;20064;-77
2022/01/01 11:00:12;;;;;;;13.20;9.57;;;;;;;17.12;66.98;101579.38;5048208;28;20524;-76
2022/01/01 11:02:59;;;;;;;13.52;9.82;;;;;;;15.67;72.15;101570.50;5034169;28;20075;-75
2022/01/01 11:05:43;;;;;;;14.18;10.02;;;;;;;15.38;73.43;101576.06;5020014;28;20427;-75
2022/01/01 11:08:28;;;;;;;12.70;9.48;;;;;;;15.38;73.71;101573.38;5033889;28;20103;-75
2022/01/01 11:11:14;;;;;;;12.15;8.88;;;;;;;15.58;74.54;101571.34;5033749;28;20056;-75
2022/01/01 11:13:59;;;;;;;10.93;8.57;;;;;;;15.94;72.47;101569.69;5033517;28;20069;-75
2022/01/01 11:16:44;;;;;;;12.75;9.48;;;;;;;14.80;77.88;101577.88;5033331;28;20128;-75
2022/01/01 11:19:29;;;;;;;13.55;9.43;;;;;;;14.51;79.86;101579.66;5033850;28;20183;-75
2022/01/01 11:22:13;;;;;;;12.60;8.95;;;;;;;15.13;78.49;101573.94;5033237;28;20049;-75
2022/01/01 11:24:57;;;;;;;14.35;9.05;;;;;;;14.61;78.86;101563.59;5033556;28;20102;-75
2022/01/01 11:27:41;;;;;;;13.00;9.30;;;;;;;15.09;78.84;101562.63;5033680;28;20124;-75
2022/01/01 11:30:27;;;;;;;13.35;8.57;;;;;;;14.51;77.57;101554.69;5033640;28;20436;-75
2022/01/01 11:33:15;;;;;;;14.32;8.57;;;;;;;14.21;80.74;101550.25;5032952;28;20052;-75
2022/01/01 11:36:00;;;;;;;12.93;8.30;;;;;;;15.39;79.96;101542.84;5033265;28;20051;-75
2022/01/01 11:38:44;;;;;;;12.98;8.32;;;;;;;15.38;77.41;101543.81;5033125;28;20519;-75
2022/01/01 11:41:38;;;;;;;13.13;8.23;;;;;;;16.03;73.89;101542.78;5033652;28;20404;-76
2022/01/01 11:44:30;;;;;;;13.02;8.73;;;;;;;16.52;71.76;101531.63;5019124;28;20045;-75
2022/01/01 11:47:19;;;;;;;16.38;9.27;;;;;;;16.09;72.57;101534.09;5033113;28;20048;-75
2022/01/01 11:50:04;;;;;;;10.35;7.70;;;;;;;16.73;69.75;101540.25;5032843;28;20512;-76
2022/01/01 11:52:48;;;;;;;9.38;7.22;;;;;;;16.69;69.81;101541.56;5034264;28;20095;-75
2022/01/01 11:55:34;;;;;;;12.57;7.13;;;;;;;17.53;69.43;101530.19;5033895;28;20064;-74
2022/01/01 11:58:18;;;;;;;8.65;6.60;;;;;;;17.13;64.93;101531.69;5032976;28;20554;-74
2022/01/01 12:01:09;;;;;;;;;;;;;;;17.39;63.02;101530.75;5033640;28;20104;-74
2022/01/01 12:03:53;;;;;;;10.35;7.20;;;;;;;17.27;63.14;101521.19;5033618;28;20114;-74
2022/01/01 12:06:37;;;;;;;12.48;7.82;;;;;;;15.90;67.84;101520.75;5032304;28;20128;-74
2022/01/01 12:09:22;;;;;;;11.32;7.47;;;;;;;15.38;71.04;101517.81;5032339;28;20048;-74
2022/01/01 12:12:07;;;;;;;9.30;6.93;;;;;;;15.89;70.39;101505.63;5032400;28;20076;-74
2022/01/01 12:14:51;;;;;;;11.98;7.57;;;;;;;15.93;69.13;101500.75;5033654;28;20401;-75
2022/01/01 12:17:43;;;;;;;12.98;7.43;;;;;;;16.63;70.43;101493.72;5032441;28;20083;-75
2022/01/01 12:20:50;;;;;;;10.40;6.97;;;;;;;16.43;66.59;101486.78;5032274;28;20136;-75
2022/01/01 12:23:37;;;;;;;10.35;7.20;;;;;;;16.37;67.23;101479.28;5032434;28;20156;-74
2022/01/01 12:26:31;;;;;;;10.75;7.47;;;;;;;15.86;72.59;101470.94;5032287;28;20088;-74
2022/01/01 12:29:14;;;;;;;11.23;7.35;;;;;;;15.27;73.20;101474.94;5032136;28;20571;-74
2022/01/01 12:31:58;;;;;;;;;;;;;;;15.63;76.69;101464.25;5032498;28;20068;-74
2022/01/01 12:35:08;;;;;;;11.00;7.47;;;;;;;16.40;70.03;101464.69;5017902;28;20376;-74
2022/01/01 12:38:03;;;;;;;8.93;6.97;;;;;;;15.80;74.64;101458.09;5031859;28;20615;-75
2022/01/01 12:41:06;;;;;;;12.23;6.47;;;;;;;15.85;73.66;101455.78;5032058;28;20515;-74
2022/01/01 12:43:57;;;;;;;8.65;6.22;;;;;;;15.77;75.12;101450.31;5031895;28;20076;-74
2022/01/01 12:46:51;;;;;;;8.88;6.43;;;;;;;15.87;75.13;101451.09;5032978;28;20064;-74